Time;durP1;ratioP1;P1;durP2;ratioP2;P2;SDS_P1;SDS_P2;PMS_P1;PMS_P2;Temp;Humidity;BMP_temperature;BMP_pressure;BME280_temperature;BME280_humidity;BME280_pressure;Samples;Min_cycle;Max_cycle;Signal;HPM_P1;HPM_P2
2021/09/26 00:00:46;;;;;;;2.87;2.59;;;;;;;13.70;65.44;100548.34;466122;113;922470;-74
2021/09/26 00:01:50;;;;;;;3.95;3.08;;;;;;;13.71;65.44;100544.53;465946;113;930265;-74
2021/09/26 00:02:53;;;;;;;3.46;3.10;;;;;;;13.71;65.42;100550.84;465918;112;930879;-74
2021/09/26 00:03:57;;;;;;;3.39;3.09;;;;;;;13.72;65.38;100548.95;465748;113;930579;-73
2021/09/26 00:05:00;;;;;;;3.53;3.01;;;;;;;13.73;65.37;100545.11;465844;113;930514;-74
2021/09/26 00:06:04;;;;;;;3.18;2.59;;;;;;;13.72;65.42;100541.56;465878;112;925531;-74
2021/09/26 00:07:08;;;;;;;3.92;2.87;;;;;;;13.72;65.46;100548.95;466028;113;930413;-73
2021/09/26 00:08:11;;;;;;;3.47;2.71;;;;;;;13.71;65.44;100544.53;466175;113;922530;-75
2021/09/26 00:09:15;;;;;;;3.36;2.37;;;;;;;13.71;65.46;100545.37;466068;112;922514;-75
2021/09/26 00:10:20;;;;;;;3.88;2.66;;;;;;;13.70;65.48;100540.95;465956;112;923137;-74
2021/09/26 00:11:23;;;;;;;2.57;2.25;;;;;;;13.69;65.44;100536.54;466199;112;922775;-73
2021/09/26 00:12:27;;;;;;;3.30;2.70;;;;;;;13.68;65.48;100534.03;466271;112;923111;-73
2021/09/26 00:13:30;;;;;;;2.96;2.13;;;;;;;13.68;65.51;100528.55;465808;113;922706;-73
2021/09/26 00:14:34;;;;;;;3.62;2.62;;;;;;;13.66;65.47;100525.23;465620;113;930356;-73
2021/09/26 00:15:37;;;;;;;4.16;2.70;;;;;;;13.65;65.55;100527.13;465887;113;930421;-74
2021/09/26 00:16:41;;;;;;;3.14;2.58;;;;;;;13.64;65.62;100525.45;466100;113;923046;-75
2021/09/26 00:17:46;;;;;;;3.25;2.78;;;;;;;13.63;65.70;100523.78;466071;113;923284;-74
2021/09/26 00:18:50;;;;;;;4.82;2.81;;;;;;;13.64;65.71;100524.62;466043;113;923100;-74
2021/09/26 00:19:53;;;;;;;3.58;2.93;;;;;;;13.63;65.80;100523.78;465930;113;923008;-74
2021/09/26 00:20:57;;;;;;;3.38;2.99;;;;;;;13.62;65.81;100527.58;465696;113;922966;-74
2021/09/26 00:22:00;;;;;;;3.86;2.59;;;;;;;13.63;65.90;100522.94;466091;113;922698;-74
2021/09/26 00:23:04;;;;;;;3.43;2.40;;;;;;;13.62;65.95;100521.27;465974;112;930562;-75
2021/09/26 00:24:07;;;;;;;4.27;2.56;;;;;;;13.62;66.06;100513.05;465984;113;922583;-74
2021/09/26 00:25:12;;;;;;;2.91;2.54;;;;;;;13.62;66.18;100521.27;466073;113;923010;-75
2021/09/26 00:26:15;;;;;;;4.22;2.69;;;;;;;13.62;66.26;100511.15;465790;113;922498;-75
2021/09/26 00:27:19;;;;;;;4.07;2.41;;;;;;;13.63;66.33;100506.50;466033;113;922892;-74
2021/09/26 00:28:22;;;;;;;3.02;2.08;;;;;;;13.64;66.35;100502.70;454752;116;922555;-75
2021/09/26 00:29:26;;;;;;;3.83;2.45;;;;;;;13.64;66.38;100500.80;454784;113;923592;-75
2021/09/26 00:30:30;;;;;;;3.02;2.33;;;;;;;13.65;66.39;100501.63;465698;111;922628;-74
2021/09/26 00:31:33;;;;;;;4.18;2.92;;;;;;;13.65;66.49;100499.73;465955;112;923338;-75
2021/09/26 00:32:37;;;;;;;2.56;2.28;;;;;;;13.66;66.47;100506.05;465690;113;930409;-74
2021/09/26 00:33:40;;;;;;;2.54;2.27;;;;;;;13.66;66.44;100511.53;465117;112;922588;-73
2021/09/26 00:34:44;;;;;;;3.23;2.08;;;;;;;13.66;66.48;100511.53;465852;113;930347;-74
2021/09/26 00:35:48;;;;;;;4.21;2.08;;;;;;;13.66;66.52;100509.62;465307;113;930296;-75
2021/09/26 00:36:51;;;;;;;2.59;2.16;;;;;;;13.67;66.56;100497.57;465541;111;923103;-74
2021/09/26 00:37:55;;;;;;;4.81;2.37;;;;;;;13.68;66.54;100501.14;466028;112;922584;-74
2021/09/26 00:38:58;;;;;;;2.14;1.95;;;;;;;13.68;66.56;100499.24;465987;112;922737;-73
2021/09/26 00:40:03;;;;;;;2.47;2.10;;;;;;;13.68;66.54;100498.41;466396;112;922639;-73
2021/09/26 00:41:06;;;;;;;2.51;1.90;;;;;;;13.68;66.59;100501.98;465771;113;922497;-73
2021/09/26 00:42:10;;;;;;;3.35;2.02;;;;;;;13.68;66.62;100501.14;466103;111;922939;-74
2021/09/26 00:43:13;;;;;;;3.08;2.12;;;;;;;13.69;66.69;100500.08;465779;113;930410;-74
2021/09/26 00:44:17;;;;;;;3.67;2.29;;;;;;;13.69;66.60;100489.13;466023;113;930356;-74
2021/09/26 00:45:20;;;;;;;4.55;2.10;;;;;;;13.70;66.63;100490.80;465896;111;923215;-74
2021/09/26 00:46:24;;;;;;;3.12;2.20;;;;;;;13.70;66.59;100488.89;465708;111;922928;-73
2021/09/26 00:47:28;;;;;;;3.27;2.17;;;;;;;13.71;66.58;100490.56;465858;112;922570;-73
2021/09/26 00:48:31;;;;;;;3.18;1.96;;;;;;;13.71;66.57;100490.56;465712;111;930453;-74
2021/09/26 00:49:34;;;;;;;2.28;1.87;;;;;;;13.72;66.54;100494.14;466600;111;922610;-75
2021/09/26 00:50:39;;;;;;;2.65;2.11;;;;;;;13.72;66.55;100483.19;465321;113;922437;-73
2021/09/26 00:51:46;;;;;;;3.69;2.34;;;;;;;13.71;66.54;100490.56;466081;112;922535;-74
2021/09/26 00:52:50;;;;;;;2.99;2.34;;;;;;;13.71;66.56;100487.83;465869;112;930336;-74
2021/09/26 00:53:53;;;;;;;3.97;2.38;;;;;;;13.71;66.58;100490.56;465075;111;923495;-74
2021/09/26 00:54:57;;;;;;;2.77;1.94;;;;;;;13.72;66.52;100489.50;466047;112;922875;-74
2021/09/26 00:56:01;;;;;;;4.43;2.64;;;;;;;13.73;66.46;100484.83;465923;113;922504;-73
2021/09/26 00:57:06;;;;;;;2.59;2.10;;;;;;;13.73;66.37;100479.34;465585;113;930444;-74
2021/09/26 00:58:09;;;;;;;3.64;2.29;;;;;;;13.73;66.36;100480.18;466049;112;922500;-74
2021/09/26 00:59:13;;;;;;;3.06;1.69;;;;;;;13.73;66.29;100482.92;465940;112;923253;-74
2021/09/26 01:00:19;;;;;;;4.12;1.70;;;;;;;13.73;66.26;100484.83;465886;112;922765;-74
2021/09/26 01:01:23;;;;;;;2.54;1.80;;;;;;;13.72;66.27;100484.02;465878;113;922663;-75
2021/09/26 01:02:27;;;;;;;3.35;2.06;;;;;;;13.72;66.22;100484.02;465675;112;922549;-74
2021/09/26 01:03:30;;;;;;;3.79;2.21;;;;;;;13.73;66.26;100482.09;465642;113;923276;-74
2021/09/26 01:04:34;;;;;;;3.49;2.11;;;;;;;13.74;66.21;100489.23;465796;111;930396;-73
2021/09/26 01:05:37;;;;;;;2.92;2.05;;;;;;;13.74;66.19;100490.08;465781;113;922561;-75
2021/09/26 01:06:58;;;;;;;2.49;1.83;;;;;;;13.74;66.23;100484.59;465504;112;922995;-73
2021/09/26 01:08:17;;;;;;;2.06;1.88;;;;;;;13.76;66.23;100474.24;465575;113;922604;-74
2021/09/26 01:09:57;;;;;;;3.29;2.13;;;;;;;13.77;66.16;100475.08;464533;113;923048;-74
2021/09/26 01:11:07;;;;;;;2.27;1.75;;;;;;;13.77;66.19;100475.08;465465;113;923085;-73
2021/09/26 01:12:34;;;;;;;2.71;1.86;;;;;;;13.77;66.14;100478.66;464796;113;923043;-74
2021/09/26 01:13:53;;;;;;;3.13;1.86;;;;;;;13.77;66.13;100486.05;465796;113;922645;-75
2021/09/26 01:15:10;;;;;;;2.66;1.84;;;;;;;13.76;66.06;100485.20;465153;113;922403;-73
2021/09/26 01:16:28;;;;;;;2.27;1.59;;;;;;;13.75;66.05;100485.44;441962;113;922859;-74
2021/09/26 01:17:53;;;;;;;2.99;1.79;;;;;;;13.73;66.10;100482.92;465313;112;922979;-73
2021/09/26 01:19:16;;;;;;;3.20;1.84;;;;;;;13.73;66.15;100488.41;456404;115;923390;-73
2021/09/26 01:20:33;;;;;;;2.19;1.67;;;;;;;13.73;66.19;100479.34;465781;111;922567;-73
2021/09/26 01:22:04;;;;;;;2.54;1.79;;;;;;;13.71;66.22;100479.61;465903;113;922835;-74
2021/09/26 01:23:23;;;;;;;2.98;2.28;;;;;;;13.72;66.22;100484.02;465961;113;922634;-74
2021/09/26 01:24:36;;;;;;;3.74;2.01;;;;;;;13.70;66.27;100483.41;465537;112;923062;-73
2021/09/26 01:25:52;;;;;;;3.44;2.12;;;;;;;13.70;66.35;100480.67;437303;120;922884;-74
2021/09/26 01:27:24;;;;;;;3.07;1.83;;;;;;;13.72;66.39;100474.97;460051;113;923082;-74
2021/09/26 01:28:53;;;;;;;3.04;1.87;;;;;;;13.74;66.40;100467.32;462882;113;923167;-74
2021/09/26 01:30:16;;;;;;;4.21;2.24;;;;;;;13.74;66.48;100475.54;464078;113;922526;-73
2021/09/26 01:31:23;;;;;;;4.22;2.55;;;;;;;13.73;66.85;100469.22;463790;114;923032;-74
2021/09/26 01:32:29;;;;;;;3.21;2.18;;;;;;;13.71;67.23;100476.03;463914;113;922753;-74
2021/09/26 01:33:41;;;;;;;2.23;2.03;;;;;;;13.69;67.48;100475.42;464102;114;923071;-74
2021/09/26 01:34:54;;;;;;;3.52;2.23;;;;;;;13.68;67.74;100484.70;461172;113;922537;-74
2021/09/26 01:36:13;;;;;;;2.54;1.88;;;;;;;13.66;68.02;100476.75;464227;114;923466;-73
2021/09/26 01:37:30;;;;;;;3.56;2.30;;;;;;;13.66;68.23;100481.39;464137;114;922989;-74
2021/09/26 01:38:37;;;;;;;4.32;1.90;;;;;;;13.66;68.41;100475.91;462781;113;922551;-74
2021/09/26 01:39:44;;;;;;;3.15;2.27;;;;;;;13.65;68.62;100485.20;464059;113;923406;-74
2021/09/26 01:40:54;;;;;;;2.71;2.10;;;;;;;13.63;68.66;100479.11;464117;114;922752;-73
2021/09/26 01:42:01;;;;;;;2.84;2.09;;;;;;;13.62;68.84;100471.95;463463;114;922483;-74
2021/09/26 01:43:08;;;;;;;3.69;2.10;;;;;;;13.60;69.11;100469.47;463707;114;922578;-74
2021/09/26 01:44:18;;;;;;;2.47;2.11;;;;;;;13.59;69.23;100475.18;464018;114;923011;-74
2021/09/26 01:45:24;;;;;;;3.16;2.12;;;;;;;13.57;69.49;100469.94;464108;113;922567;-74
2021/09/26 01:46:31;;;;;;;4.59;2.42;;;;;;;13.56;69.60;100465.52;463976;113;923041;-73
2021/09/26 01:47:48;;;;;;;3.09;2.16;;;;;;;13.56;69.75;100467.45;463626;113;922484;-73
2021/09/26 01:49:13;;;;;;;3.01;2.26;;;;;;;13.56;69.88;100473.73;463721;113;922493;-73
2021/09/26 01:50:17;;;;;;;3.56;2.27;;;;;;;13.54;70.04;100462.20;445950;118;922544;-74
2021/09/26 01:51:22;;;;;;;3.83;2.04;;;;;;;13.52;70.37;100469.81;450525;117;922624;-73
2021/09/26 01:52:29;;;;;;;2.51;2.03;;;;;;;13.52;70.61;100474.45;450113;117;930529;-74
2021/09/26 01:53:36;;;;;;;4.54;2.49;;;;;;;13.47;70.79;100472.42;449855;117;923166;-73
2021/09/26 01:54:42;;;;;;;7.52;2.57;;;;;;;13.44;71.10;100472.91;450216;117;922647;-74
2021/09/26 01:55:47;;;;;;;3.82;2.78;;;;;;;13.41;71.45;100473.37;450409;117;922946;-73
2021/09/26 01:56:53;;;;;;;3.03;2.32;;;;;;;13.38;71.94;100476.59;449977;117;922650;-74
2021/09/26 01:57:57;;;;;;;4.77;2.64;;;;;;;13.35;72.19;100477.05;450148;117;923150;-73
2021/09/26 01:59:02;;;;;;;3.48;2.22;;;;;;;13.31;72.46;100481.33;450104;117;922628;-73
2021/09/26 02:00:07;;;;;;;4.14;2.52;;;;;;;13.27;73.02;100475.50;449935;117;922963;-75
2021/09/26 02:01:17;;;;;;;3.24;2.19;;;;;;;13.22;73.24;100472.64;450333;117;930578;-73
2021/09/26 02:02:23;;;;;;;3.36;2.09;;;;;;;13.17;73.40;100477.98;450445;117;922494;-73
2021/09/26 02:03:27;;;;;;;3.48;2.08;;;;;;;13.13;73.74;100475.92;449162;117;922557;-75
2021/09/26 02:04:31;;;;;;;3.24;2.49;;;;;;;13.09;73.83;100470.06;449932;117;923099;-74
2021/09/26 02:05:40;;;;;;;4.33;2.53;;;;;;;13.06;74.06;100462.33;449778;117;923433;-73
2021/09/26 02:06:45;;;;;;;4.04;3.35;;;;;;;13.04;74.20;100461.72;450118;117;923180;-73
2021/09/26 02:07:51;;;;;;;3.17;2.18;;;;;;;13.02;74.24;100460.27;450238;117;923173;-73
2021/09/26 02:08:56;;;;;;;3.61;2.35;;;;;;;13.01;74.39;100464.10;450339;117;922584;-74
2021/09/26 02:10:00;;;;;;;3.67;2.57;;;;;;;13.00;74.47;100459.69;450467;117;923120;-74
2021/09/26 02:11:04;;;;;;;4.34;2.42;;;;;;;12.98;74.55;100462.66;450267;117;930760;-74
2021/09/26 02:12:08;;;;;;;2.66;2.39;;;;;;;12.98;74.59;100467.29;450146;117;930613;-73
2021/09/26 02:13:12;;;;;;;4.86;2.44;;;;;;;12.98;74.60;100454.44;450402;117;922486;-74
2021/09/26 02:14:17;;;;;;;3.30;2.27;;;;;;;12.99;74.64;100460.75;450203;117;922947;-74
2021/09/26 02:15:22;;;;;;;3.32;2.25;;;;;;;13.01;74.72;100455.89;450387;117;930409;-73
2021/09/26 02:16:28;;;;;;;3.15;2.22;;;;;;;13.01;74.67;100466.84;450285;117;930804;-73
2021/09/26 02:17:32;;;;;;;3.13;2.22;;;;;;;13.03;74.71;100453.73;450490;117;922920;-73
2021/09/26 02:18:38;;;;;;;4.55;2.68;;;;;;;13.04;74.73;100452.67;450457;117;923006;-73
2021/09/26 02:19:41;;;;;;;4.24;2.64;;;;;;;13.05;74.68;100446.97;450045;117;923032;-74
2021/09/26 02:20:45;;;;;;;2.50;1.99;;;;;;;13.06;74.63;100447.81;450405;117;923035;-74
2021/09/26 02:21:50;;;;;;;4.06;2.38;;;;;;;13.07;74.61;100454.92;449770;117;922719;-75
2021/09/26 02:22:55;;;;;;;4.25;2.29;;;;;;;13.09;74.64;100455.54;449772;117;922618;-74
2021/09/26 02:24:01;;;;;;;3.33;2.21;;;;;;;13.10;74.60;100449.84;450000;117;925902;-73
2021/09/26 02:25:07;;;;;;;3.21;2.54;;;;;;;13.12;74.59;100455.13;449875;117;922519;-73
2021/09/26 02:26:12;;;;;;;2.97;2.67;;;;;;;13.13;74.60;100445.81;447543;117;923047;-73
2021/09/26 02:27:16;;;;;;;3.67;2.43;;;;;;;13.14;74.68;100444.75;451869;117;922607;-74
2021/09/26 02:28:20;;;;;;;4.12;2.16;;;;;;;13.14;74.73;100453.80;451525;117;922645;-73
2021/09/26 02:29:24;;;;;;;2.29;2.09;;;;;;;13.14;74.77;100458.44;451683;117;922958;-73
2021/09/26 02:30:27;;;;;;;3.26;2.61;;;;;;;13.14;74.87;100452.96;451765;117;922810;-73
2021/09/26 02:31:31;;;;;;;2.68;2.34;;;;;;;13.14;74.87;100453.80;451988;117;922510;-73
2021/09/26 02:32:34;;;;;;;3.64;2.62;;;;;;;13.14;74.94;100450.22;451458;117;922988;-73
2021/09/26 02:33:40;;;;;;;3.71;2.45;;;;;;;13.13;74.94;100454.02;451977;117;922597;-75
2021/09/26 02:34:43;;;;;;;4.73;2.46;;;;;;;13.13;75.01;100451.28;451282;117;930614;-74
2021/09/26 02:35:48;;;;;;;4.22;3.09;;;;;;;13.14;75.10;100450.22;451929;117;922549;-75
2021/09/26 02:36:52;;;;;;;4.47;2.78;;;;;;;13.14;75.13;100451.06;451680;117;923008;-75
2021/09/26 02:37:55;;;;;;;4.84;2.69;;;;;;;13.14;75.15;100452.96;451889;117;922963;-74
2021/09/26 02:39:01;;;;;;;3.78;2.21;;;;;;;13.13;75.50;100454.86;451888;117;930584;-74
2021/09/26 02:40:06;;;;;;;5.77;2.55;;;;;;;13.13;75.50;100454.86;451620;117;930510;-74
2021/09/26 02:41:38;;;;;;;3.40;2.73;;;;;;;13.14;75.27;100462.02;451721;116;922998;-73
2021/09/26 02:42:48;;;;;;;4.42;2.57;;;;;;;13.13;75.35;100457.60;451112;117;923562;-74
2021/09/26 02:44:11;;;;;;;3.99;2.46;;;;;;;13.12;75.30;100463.33;451647;117;923110;-74
2021/09/26 02:45:24;;;;;;;3.16;2.51;;;;;;;13.10;75.32;100452.58;451632;117;922688;-76
2021/09/26 02:46:38;;;;;;;4.16;2.66;;;;;;;13.12;75.41;100460.59;451838;117;922526;-74
2021/09/26 02:47:53;;;;;;;4.58;2.39;;;;;;;13.12;75.41;100472.34;451852;117;922991;-73
2021/09/26 02:48:57;;;;;;;4.47;2.73;;;;;;;13.14;75.48;100474.86;451797;117;922615;-74
2021/09/26 02:50:01;;;;;;;4.27;2.35;;;;;;;13.14;75.49;100469.39;451669;117;922901;-74
2021/09/26 02:51:06;;;;;;;4.21;2.24;;;;;;;13.13;75.52;100468.55;451751;117;930962;-73
2021/09/26 02:52:11;;;;;;;6.35;2.88;;;;;;;13.13;75.60;100456.77;451775;117;930530;-73
2021/09/26 02:53:16;;;;;;;5.96;2.99;;;;;;;13.15;75.64;100465.59;451545;117;930574;-74
2021/09/26 02:54:21;;;;;;;3.84;2.65;;;;;;;13.16;75.74;100470.00;451869;117;923012;-73
2021/09/26 02:55:26;;;;;;;4.22;2.56;;;;;;;13.18;75.70;100465.94;451892;117;923002;-74
2021/09/26 02:56:31;;;;;;;4.05;2.31;;;;;;;13.19;75.67;100462.14;451882;117;922531;-74
2021/09/26 02:57:35;;;;;;;5.14;2.81;;;;;;;13.20;75.69;100461.08;451927;117;922516;-73
2021/09/26 02:58:39;;;;;;;4.12;3.24;;;;;;;13.21;75.67;100457.27;451492;117;923077;-74
2021/09/26 02:59:44;;;;;;;4.20;2.80;;;;;;;13.21;75.71;100464.66;451960;117;923026;-73
2021/09/26 03:00:49;;;;;;;3.73;2.69;;;;;;;13.21;75.74;100460.02;450929;116;922569;-74
2021/09/26 03:01:54;;;;;;;4.46;2.52;;;;;;;13.22;75.75;100461.69;451722;117;923032;-73
2021/09/26 03:03:18;;;;;;;3.92;2.96;;;;;;;13.22;75.86;100460.84;451207;115;923047;-73
2021/09/26 03:04:22;;;;;;;4.02;2.62;;;;;;;13.21;75.87;100454.53;451424;117;922653;-74
2021/09/26 03:05:25;;;;;;;4.42;2.70;;;;;;;13.20;76.15;100452.86;451389;117;922814;-73
2021/09/26 03:06:30;;;;;;;4.11;2.72;;;;;;;13.21;76.26;100456.44;451320;117;922520;-75
2021/09/26 03:07:33;;;;;;;3.43;2.64;;;;;;;13.19;76.40;100456.66;451575;117;923927;-74
2021/09/26 03:08:36;;;;;;;4.58;3.01;;;;;;;13.19;76.57;100458.56;451489;117;930524;-74
2021/09/26 03:09:41;;;;;;;3.71;2.65;;;;;;;13.19;76.66;100458.56;451841;117;923147;-74
2021/09/26 03:10:47;;;;;;;3.73;2.42;;;;;;;13.17;76.87;100463.46;451859;117;922617;-74
2021/09/26 03:11:50;;;;;;;3.61;2.75;;;;;;;13.14;76.89;100453.80;451792;117;923036;-74
2021/09/26 03:12:53;;;;;;;3.42;2.82;;;;;;;13.12;76.99;100455.92;451923;117;922796;-74
2021/09/26 03:13:57;;;;;;;3.21;2.58;;;;;;;13.11;77.04;100461.63;452097;117;922595;-74
2021/09/26 03:15:00;;;;;;;4.40;2.86;;;;;;;13.09;77.01;100464.59;451889;117;922699;-74
2021/09/26 03:16:07;;;;;;;2.77;2.48;;;;;;;13.08;77.09;100459.34;451335;117;922567;-73
2021/09/26 03:17:09;;;;;;;2.98;2.55;;;;;;;13.08;77.19;100462.08;451852;115;930398;-74
2021/09/26 03:18:12;;;;;;;4.19;3.27;;;;;;;13.08;77.31;100462.08;451387;117;923050;-74
2021/09/26 03:19:16;;;;;;;3.52;3.01;;;;;;;13.08;77.36;100456.60;451646;117;922834;-73
2021/09/26 03:20:20;;;;;;;3.78;2.70;;;;;;;13.08;77.46;100451.13;451837;117;922920;-74
2021/09/26 03:21:23;;;;;;;5.91;2.98;;;;;;;13.09;77.52;100458.27;451955;117;922569;-72
2021/09/26 03:22:27;;;;;;;3.52;2.88;;;;;;;13.10;77.50;100460.79;451791;115;922890;-74
2021/09/26 03:23:30;;;;;;;3.62;3.01;;;;;;;13.10;77.59;100449.00;451897;115;922618;-74
2021/09/26 03:24:34;;;;;;;4.99;2.83;;;;;;;13.10;77.68;100451.73;451477;117;923130;-73
2021/09/26 03:25:37;;;;;;;3.38;2.80;;;;;;;13.10;77.68;100440.79;451455;117;922983;-74
2021/09/26 03:26:41;;;;;;;3.92;3.03;;;;;;;13.09;77.70;100442.69;450623;115;922909;-74
2021/09/26 03:27:44;;;;;;;3.08;2.76;;;;;;;13.11;77.79;100450.67;451817;115;922557;-74
2021/09/26 03:28:48;;;;;;;9.48;3.81;;;;;;;13.13;77.84;100451.28;449824;117;922684;-73
2021/09/26 03:29:51;;;;;;;3.29;2.97;;;;;;;13.13;77.83;100452.12;447964;117;930548;-72
2021/09/26 03:30:55;;;;;;;4.20;3.45;;;;;;;13.15;77.85;100449.16;451868;117;923430;-74
2021/09/26 03:31:59;;;;;;;3.83;3.17;;;;;;;13.15;77.86;100449.16;451155;117;922604;-72
2021/09/26 03:33:02;;;;;;;4.62;3.14;;;;;;;13.14;77.89;100451.06;451788;115;922994;-72
2021/09/26 03:34:05;;;;;;;5.83;3.14;;;;;;;13.13;77.98;100446.65;451579;117;922615;-74
2021/09/26 03:35:10;;;;;;;3.35;2.91;;;;;;;13.13;77.98;100449.39;444020;117;922999;-73
2021/09/26 03:36:14;;;;;;;4.23;2.63;;;;;;;13.13;77.99;100448.55;444217;117;922876;-73
2021/09/26 03:37:18;;;;;;;7.41;3.22;;;;;;;13.14;78.03;100456.53;451691;115;922630;-72
2021/09/26 03:38:21;;;;;;;3.58;2.98;;;;;;;13.16;78.04;100459.05;451855;115;922668;-73
2021/09/26 03:39:25;;;;;;;3.87;3.39;;;;;;;13.16;78.02;100456.31;452017;117;922621;-73
2021/09/26 03:40:29;;;;;;;3.55;3.25;;;;;;;13.17;78.03;100453.34;451993;117;922935;-73
2021/09/26 03:41:33;;;;;;;3.72;3.02;;;;;;;13.21;78.06;100448.22;451893;115;922978;-74
2021/09/26 03:42:37;;;;;;;5.33;3.57;;;;;;;13.23;78.06;100457.86;452037;117;922492;-73
2021/09/26 03:43:41;;;;;;;6.86;3.88;;;;;;;13.25;78.01;100458.47;451855;117;922946;-74
2021/09/26 03:44:44;;;;;;;4.34;3.39;;;;;;;13.25;78.01;100449.41;451869;117;930556;-73
2021/09/26 03:45:50;;;;;;;3.68;3.36;;;;;;;13.25;77.96;100454.89;451882;117;930929;-74
2021/09/26 03:46:54;;;;;;;3.55;2.98;;;;;;;13.25;78.00;100454.89;451133;115;922555;-75
2021/09/26 03:47:58;;;;;;;3.92;3.50;;;;;;;13.27;77.98;100452.77;451780;115;923420;-73
2021/09/26 03:49:01;;;;;;;4.10;3.63;;;;;;;13.27;77.98;100450.02;443610;119;922529;-74
2021/09/26 03:50:06;;;;;;;4.97;3.98;;;;;;;13.27;77.96;100453.60;443856;119;923267;-74
2021/09/26 03:51:10;;;;;;;5.37;4.02;;;;;;;13.29;77.99;100445.96;440332;120;930442;-74
2021/09/26 03:52:14;;;;;;;3.49;3.17;;;;;;;13.30;77.98;100444.90;451654;117;922518;-74
2021/09/26 03:53:18;;;;;;;5.37;3.71;;;;;;;13.31;78.08;100438.36;440558;120;923072;-74
2021/09/26 03:54:22;;;;;;;5.91;4.16;;;;;;;13.31;78.08;100440.27;451743;115;922906;-73
2021/09/26 03:55:25;;;;;;;9.02;3.90;;;;;;;13.32;78.21;100436.45;451958;117;922903;-74
2021/09/26 03:56:28;;;;;;;4.39;3.74;;;;;;;13.32;78.27;100440.03;451285;117;922869;-73
2021/09/26 03:57:32;;;;;;;6.06;3.30;;;;;;;13.32;78.34;100434.55;451977;115;930823;-74
2021/09/26 03:58:35;;;;;;;7.73;4.54;;;;;;;13.32;78.42;100445.51;451505;117;922975;-74
2021/09/26 03:59:39;;;;;;;4.84;4.05;;;;;;;13.32;78.42;100429.08;451327;117;922529;-73
2021/09/26 04:00:42;;;;;;;4.81;4.30;;;;;;;13.34;78.48;100437.88;452021;117;922682;-74
2021/09/26 04:01:47;;;;;;;6.41;4.37;;;;;;;13.34;78.50;100437.06;451934;117;922937;-74
2021/09/26 04:02:51;;;;;;;5.12;4.01;;;;;;;13.32;78.54;100434.55;451184;117;930827;-73
2021/09/26 04:03:54;;;;;;;4.87;4.46;;;;;;;13.34;78.53;100439.80;451871;115;922977;-73
2021/09/26 04:04:58;;;;;;;5.02;3.70;;;;;;;13.33;78.64;100435.39;451281;117;924990;-73
2021/09/26 04:06:01;;;;;;;5.13;4.57;;;;;;;13.32;78.63;100434.55;448510;117;922619;-74
2021/09/26 04:07:05;;;;;;;6.10;4.03;;;;;;;13.32;78.61;100445.51;451292;116;922688;-73
2021/09/26 04:08:08;;;;;;;4.51;4.09;;;;;;;13.32;78.65;100440.03;451985;117;930622;-73
2021/09/26 04:09:12;;;;;;;5.78;4.50;;;;;;;13.33;78.68;100440.87;426879;120;922762;-73
2021/09/26 04:10:16;;;;;;;7.30;4.17;;;;;;;13.35;78.68;100446.92;447693;115;930549;-73
2021/09/26 04:11:20;;;;;;;5.08;4.24;;;;;;;13.35;78.66;100447.76;460819;114;923503;-74
2021/09/26 04:12:23;;;;;;;4.72;4.33;;;;;;;13.38;78.68;100451.95;461014;115;922546;-74
2021/09/26 04:13:27;;;;;;;5.35;4.54;;;;;;;13.40;78.61;100440.77;461053;115;930462;-73
2021/09/26 04:14:31;;;;;;;6.30;4.49;;;;;;;13.40;78.58;100446.24;460773;115;930480;-73
2021/09/26 04:15:34;;;;;;;9.23;5.37;;;;;;;13.40;78.56;100446.24;461058;115;930609;-73
2021/09/26 04:16:40;;;;;;;6.96;5.11;;;;;;;13.40;78.54;100444.31;460819;114;922973;-73
2021/09/26 04:17:43;;;;;;;5.94;4.68;;;;;;;13.40;78.55;100448.98;460819;114;923024;-73
2021/09/26 04:18:46;;;;;;;8.54;5.34;;;;;;;13.40;78.53;100447.05;461210;115;922692;-73
2021/09/26 04:19:50;;;;;;;5.44;4.90;;;;;;;13.42;78.55;100450.39;460478;115;923275;-74
2021/09/26 04:20:54;;;;;;;7.54;5.24;;;;;;;13.43;78.53;100445.75;461138;113;922903;-74
2021/09/26 04:21:57;;;;;;;6.30;5.19;;;;;;;13.44;78.54;100447.43;460703;114;922641;-73
2021/09/26 04:23:00;;;;;;;5.92;5.00;;;;;;;13.46;78.53;100448.84;461088;115;922593;-73
2021/09/26 04:24:04;;;;;;;6.24;4.64;;;;;;;13.47;78.53;100447.77;461163;115;922572;-74
2021/09/26 04:25:08;;;;;;;9.55;5.38;;;;;;;13.49;78.49;100447.55;460853;115;922489;-72
2021/09/26 04:26:13;;;;;;;7.14;4.62;;;;;;;13.48;78.47;100446.71;460969;113;930697;-74
2021/09/26 04:27:16;;;;;;;7.08;4.76;;;;;;;13.50;78.43;100446.48;464758;113;930436;-74
2021/09/26 04:28:19;;;;;;;7.08;4.61;;;;;;;13.49;78.44;100442.91;465734;112;923020;-74
2021/09/26 04:29:23;;;;;;;11.71;4.66;;;;;;;13.50;78.46;100451.96;466074;113;924528;-72
2021/09/26 04:30:27;;;;;;;8.31;4.42;;;;;;;13.51;78.49;100446.22;466138;112;923029;-73
2021/09/26 04:31:30;;;;;;;9.64;4.76;;;;;;;13.54;78.48;100447.67;465951;112;923060;-74
2021/09/26 04:32:35;;;;;;;9.33;4.67;;;;;;;13.55;78.46;100446.60;465598;113;922678;-73
2021/09/26 04:33:38;;;;;;;8.78;4.77;;;;;;;13.56;78.50;100451.82;465583;112;925300;-75
2021/09/26 04:34:42;;;;;;;10.19;4.95;;;;;;;13.57;78.43;100455.40;466000;113;922678;-73
2021/09/26 04:35:45;;;;;;;8.15;4.92;;;;;;;13.58;78.43;100455.17;465914;113;922622;-72
2021/09/26 04:36:49;;;;;;;11.83;4.84;;;;;;;13.60;78.40;100454.94;465845;113;922863;-73
2021/09/26 04:37:53;;;;;;;8.96;4.98;;;;;;;13.60;78.37;100450.30;466248;112;930835;-74
2021/09/26 04:38:56;;;;;;;8.56;4.76;;;;;;;13.61;78.44;100457.45;466260;112;922523;-71
2021/09/26 04:39:59;;;;;;;9.02;4.91;;;;;;;13.63;78.38;100451.71;466479;111;923424;-74
2021/09/26 04:41:03;;;;;;;12.47;5.27;;;;;;;13.64;78.39;100447.91;465403;112;922486;-73
2021/09/26 04:42:09;;;;;;;9.32;4.63;;;;;;;13.65;78.40;100444.94;466063;113;930573;-74
2021/09/26 04:43:13;;;;;;;12.42;5.08;;;;;;;13.64;78.43;100451.48;465872;113;922548;-74
2021/09/26 04:44:16;;;;;;;11.17;5.26;;;;;;;13.67;78.41;100453.73;465908;111;923545;-74
2021/09/26 04:45:20;;;;;;;9.06;4.93;;;;;;;13.69;78.42;100450.77;466008;113;922747;-74
2021/09/26 04:46:26;;;;;;;9.62;4.93;;;;;;;13.71;78.40;100457.69;465789;113;922587;-74
2021/09/26 04:47:29;;;;;;;7.53;4.32;;;;;;;13.73;78.36;100454.69;465736;111;923060;-74
2021/09/26 04:48:33;;;;;;;8.44;4.31;;;;;;;13.75;78.35;100458.87;465904;111;930512;-74
2021/09/26 04:49:37;;;;;;;9.09;4.17;;;;;;;13.75;78.34;100450.64;466035;112;922498;-73
2021/09/26 04:50:42;;;;;;;6.62;4.52;;;;;;;13.77;78.33;100448.52;465604;113;922505;-75
2021/09/26 04:51:45;;;;;;;4.77;3.90;;;;;;;13.78;78.30;100455.64;465959;112;922517;-75
2021/09/26 04:52:48;;;;;;;10.99;4.41;;;;;;;13.80;78.34;100455.41;465993;113;922599;-74
2021/09/26 04:53:52;;;;;;;5.13;4.23;;;;;;;13.82;78.30;100450.53;466059;113;923125;-73
2021/09/26 04:54:55;;;;;;;5.73;4.42;;;;;;;13.84;78.29;100453.84;466160;113;922574;-73
2021/09/26 04:55:58;;;;;;;4.93;3.78;;;;;;;13.87;78.29;100447.91;466087;113;922735;-72
2021/09/26 04:57:02;;;;;;;6.27;4.55;;;;;;;13.89;78.25;100451.25;466029;111;922739;-75
2021/09/26 04:58:06;;;;;;;7.89;4.89;;;;;;;13.92;78.20;100453.50;465527;113;923440;-75
2021/09/26 04:59:09;;;;;;;5.57;4.44;;;;;;;13.94;78.17;100453.27;465655;112;930492;-74
2021/09/26 05:00:14;;;;;;;5.20;4.23;;;;;;;13.96;78.12;100449.20;465971;112;922560;-74
2021/09/26 05:01:18;;;;;;;4.63;4.23;;;;;;;13.99;78.13;100448.73;465944;113;922570;-74
2021/09/26 05:02:22;;;;;;;4.63;4.15;;;;;;;14.01;78.06;100441.08;465879;112;923077;-73
2021/09/26 05:03:25;;;;;;;5.28;4.55;;;;;;;14.04;78.00;100448.00;465814;113;923027;-74